createdAt,value
2018-03-30T00:00:44.905Z,9.97
2018-03-30T00:03:12.404Z,9.40
2018-03-30T00:05:39.943Z,10.70
2018-03-30T00:08:07.838Z,11.50
2018-03-30T00:10:41.122Z,9.90
2018-03-30T00:13:08.637Z,8.80
2018-03-30T00:15:37.118Z,10.00
2018-03-30T00:18:04.800Z,10.60
2018-03-30T00:20:32.389Z,10.70
2018-03-30T00:22:59.925Z,9.00
2018-03-30T00:25:27.426Z,10.97
2018-03-30T00:27:54.923Z,12.50
2018-03-30T00:30:22.558Z,18.37
2018-03-30T00:32:51.242Z,10.60
2018-03-30T00:35:19.221Z,8.90
2018-03-30T00:37:46.705Z,9.50
2018-03-30T00:40:14.215Z,11.10
2018-03-30T00:42:41.724Z,8.17
2018-03-30T00:45:09.284Z,8.27
2018-03-30T00:47:36.798Z,10.73
2018-03-30T00:50:04.400Z,8.03
2018-03-30T00:52:31.864Z,9.80
2018-03-30T00:54:59.413Z,8.30
2018-03-30T00:57:27.278Z,8.40
2018-03-30T00:59:55.166Z,9.80
2018-03-30T01:02:22.693Z,10.57
2018-03-30T01:04:50.207Z,10.90
2018-03-30T01:07:17.697Z,9.77
2018-03-30T01:09:45.153Z,9.33
2018-03-30T01:12:12.800Z,7.83
2018-03-30T01:14:40.278Z,8.70
2018-03-30T01:17:07.758Z,10.83
2018-03-30T01:19:35.345Z,10.07
2018-03-30T01:22:02.817Z,9.40
2018-03-30T01:24:30.718Z,15.27
2018-03-30T01:26:58.203Z,9.80
2018-03-30T01:29:25.717Z,8.20
2018-03-30T01:31:53.275Z,11.07
2018-03-30T01:34:20.770Z,11.90
2018-03-30T01:36:48.271Z,9.63
2018-03-30T01:39:15.862Z,10.13
2018-03-30T01:41:43.747Z,9.53
2018-03-30T01:44:11.628Z,10.37
2018-03-30T01:46:39.592Z,7.53
2018-03-30T01:49:07.482Z,13.40
2018-03-30T01:51:35.087Z,11.80
2018-03-30T01:54:02.959Z,9.63
2018-03-30T01:56:30.421Z,11.00
2018-03-30T01:58:57.909Z,13.13
2018-03-30T02:01:25.486Z,10.17
2018-03-30T02:03:53.452Z,8.23
2018-03-30T02:06:21.340Z,10.53
2018-03-30T02:08:48.839Z,9.87
2018-03-30T02:11:16.363Z,9.20
2018-03-30T02:13:43.867Z,11.43
2018-03-30T02:16:11.366Z,8.17
2018-03-30T02:18:38.863Z,13.33
2018-03-30T02:21:06.917Z,9.30
2018-03-30T02:23:34.433Z,10.50
2018-03-30T02:26:01.936Z,8.40
2018-03-30T02:28:29.424Z,9.43
2018-03-30T02:30:57.293Z,9.17
2018-03-30T02:33:25.176Z,8.47
2018-03-30T02:35:52.679Z,13.30
2018-03-30T02:38:20.168Z,9.37
2018-03-30T02:40:48.401Z,9.23
2018-03-30T02:43:15.918Z,8.50
2018-03-30T02:45:43.901Z,10.80
2018-03-30T02:48:11.798Z,7.63
2018-03-30T02:50:39.319Z,8.77
2018-03-30T03:05:54.895Z,8.93
2018-03-30T03:08:22.393Z,9.83
2018-03-30T03:10:49.881Z,8.30
2018-03-30T03:13:17.363Z,9.43
2018-03-30T03:15:44.839Z,13.87
2018-03-30T03:18:12.312Z,11.40
2018-03-30T03:20:40.273Z,11.93
2018-03-30T03:23:07.831Z,11.00
2018-03-30T03:25:35.330Z,9.63
2018-03-30T03:28:02.881Z,12.50
2018-03-30T03:30:30.797Z,12.50
2018-03-30T03:32:58.568Z,11.53
2018-03-30T03:35:26.081Z,8.33
2018-03-30T03:37:53.948Z,10.57
2018-03-30T03:40:21.833Z,10.67
2018-03-30T03:42:49.394Z,8.33
2018-03-30T03:45:16.869Z,15.53
2018-03-30T03:47:44.355Z,10.27
2018-03-30T03:50:11.860Z,11.03
2018-03-30T03:52:39.354Z,10.50
2018-03-30T03:55:06.856Z,11.23
2018-03-30T03:57:34.368Z,10.83
2018-03-30T04:00:03.263Z,14.20
2018-03-30T04:02:31.240Z,10.77
2018-03-30T04:04:59.136Z,11.33
2018-03-30T04:07:26.640Z,10.83
2018-03-30T04:09:54.130Z,11.70
2018-03-30T04:12:21.997Z,10.00
2018-03-30T04:14:49.964Z,11.40
2018-03-30T04:17:18.522Z,9.80
2018-03-30T04:19:45.997Z,13.00
2018-03-30T04:22:13.487Z,13.53
2018-03-30T04:24:41.409Z,13.40
2018-03-30T04:27:09.442Z,11.27
2018-03-30T04:29:37.396Z,13.20
2018-03-30T04:32:05.301Z,11.73
2018-03-30T04:34:32.775Z,11.10
2018-03-30T04:37:00.262Z,12.83
2018-03-30T04:39:27.751Z,12.27
2018-03-30T04:41:55.317Z,12.80
2018-03-30T04:44:23.228Z,12.43
2018-03-30T04:46:50.762Z,12.17
2018-03-30T04:49:18.737Z,9.83
2018-03-30T04:51:46.702Z,10.80
2018-03-30T04:54:14.686Z,11.43
2018-03-30T04:56:43.005Z,11.90
2018-03-30T04:59:10.528Z,13.63
2018-03-30T05:01:38.409Z,11.17
2018-03-30T05:04:05.916Z,11.50
2018-03-30T05:06:33.394Z,10.10
2018-03-30T05:09:00.893Z,14.60
2018-03-30T05:11:28.844Z,11.60
2018-03-30T05:13:56.341Z,15.67
2018-03-30T05:16:23.832Z,12.87
2018-03-30T05:18:51.458Z,13.53
2018-03-30T05:21:19.382Z,11.50
2018-03-30T05:23:46.904Z,14.27
2018-03-30T05:26:14.433Z,13.30
2018-03-30T05:28:41.995Z,11.00
2018-03-30T05:31:10.004Z,11.70
2018-03-30T05:33:37.538Z,16.37
2018-03-30T05:36:05.435Z,14.27
2018-03-30T05:38:32.928Z,13.70
2018-03-30T05:41:00.579Z,13.30
2018-03-30T05:43:28.087Z,11.50
2018-03-30T05:45:55.588Z,12.17
2018-03-30T05:48:23.095Z,13.17
2018-03-30T05:50:50.578Z,12.07
2018-03-30T05:53:18.089Z,17.33
2018-03-30T05:55:45.584Z,13.73
2018-03-30T05:58:13.081Z,13.17
2018-03-30T06:00:41.087Z,13.37
2018-03-30T06:03:08.564Z,13.57
2018-03-30T06:05:36.078Z,12.90
2018-03-30T06:08:04.060Z,16.30
2018-03-30T06:10:32.010Z,10.77
2018-03-30T06:12:59.608Z,14.10
2018-03-30T06:15:27.881Z,11.80
2018-03-30T06:17:55.775Z,13.20
2018-03-30T06:20:23.259Z,12.40
2018-03-30T06:22:50.755Z,12.83
2018-03-30T06:25:18.256Z,12.07
2018-03-30T06:27:45.742Z,13.93
2018-03-30T06:30:13.272Z,11.90
2018-03-30T06:32:41.196Z,11.70
2018-03-30T06:35:08.680Z,12.30
2018-03-30T06:37:36.186Z,18.50
2018-03-30T06:40:03.752Z,13.70
2018-03-30T06:42:31.612Z,13.97
2018-03-30T06:44:59.104Z,13.10
2018-03-30T06:47:26.632Z,11.17
2018-03-30T06:49:54.179Z,11.90
2018-03-30T06:52:21.648Z,12.73
2018-03-30T06:54:49.525Z,10.20
2018-03-30T06:57:17.417Z,15.80
2018-03-30T06:59:44.997Z,12.43
2018-03-30T07:02:12.474Z,12.63
2018-03-30T07:04:39.986Z,11.23
2018-03-30T07:07:07.948Z,12.07
2018-03-30T07:09:35.879Z,11.17
2018-03-30T07:12:03.362Z,14.43
2018-03-30T07:14:30.840Z,12.30
2018-03-30T07:16:58.740Z,9.00
2018-03-30T07:19:26.229Z,10.53
2018-03-30T07:21:53.707Z,9.70
2018-03-30T07:24:21.208Z,11.67
2018-03-30T07:26:49.172Z,10.80
2018-03-30T07:29:17.069Z,12.53
2018-03-30T07:31:44.621Z,12.33
2018-03-30T07:34:12.566Z,13.17
2018-03-30T07:36:40.041Z,9.90
2018-03-30T07:39:08.015Z,9.67
2018-03-30T07:41:35.521Z,10.10
2018-03-30T07:44:03.029Z,9.13
2018-03-30T07:46:30.545Z,10.47
2018-03-30T07:48:58.063Z,11.70
2018-03-30T07:51:25.540Z,9.20
2018-03-30T07:53:53.437Z,9.90
2018-03-30T07:56:20.964Z,10.53
2018-03-30T07:58:48.695Z,11.03
2018-03-30T08:01:16.204Z,11.43
2018-03-30T08:03:44.096Z,11.60
2018-03-30T08:06:11.562Z,8.63
2018-03-30T08:08:39.051Z,9.07
2018-03-30T08:11:06.567Z,11.30
2018-03-30T08:13:34.557Z,9.23
2018-03-30T08:16:02.046Z,13.13
2018-03-30T08:18:29.555Z,15.07
2018-03-30T08:20:57.059Z,9.23
2018-03-30T08:23:24.569Z,9.80
2018-03-30T08:25:52.049Z,9.73
2018-03-30T08:28:20.004Z,9.50
2018-03-30T08:30:47.520Z,9.97
2018-03-30T08:33:15.024Z,11.10
2018-03-30T08:35:42.866Z,9.73
2018-03-30T08:38:10.354Z,10.07
2018-03-30T08:40:37.878Z,11.30
2018-03-30T08:43:05.424Z,9.90
2018-03-30T08:45:32.958Z,10.03
2018-03-30T08:48:00.471Z,11.50
2018-03-30T08:50:27.999Z,9.73
2018-03-30T08:52:56.414Z,11.50
2018-03-30T08:55:23.997Z,10.53
2018-03-30T08:57:51.674Z,12.40
2018-03-30T09:00:19.211Z,13.30
2018-03-30T09:02:46.751Z,9.57
2018-03-30T09:05:14.685Z,9.23
2018-03-30T09:07:42.242Z,10.40
2018-03-30T09:10:09.871Z,10.57
2018-03-30T09:12:37.539Z,12.20
2018-03-30T09:15:05.121Z,10.53
2018-03-30T09:17:32.879Z,10.83
2018-03-30T09:20:00.418Z,10.30
2018-03-30T09:22:28.276Z,11.23
2018-03-30T09:24:55.834Z,8.40
2018-03-30T09:27:23.866Z,9.53
2018-03-30T09:29:53.358Z,9.10
2018-03-30T09:32:21.285Z,9.60
2018-03-30T09:34:48.794Z,10.53
2018-03-30T09:37:16.296Z,9.10
2018-03-30T09:39:44.049Z,7.50
2018-03-30T09:42:11.568Z,8.77
2018-03-30T09:44:39.222Z,8.00
2018-03-30T09:47:07.163Z,9.13
2018-03-30T09:49:34.803Z,7.67
2018-03-30T09:52:02.316Z,7.70
2018-03-30T09:54:29.821Z,7.83
2018-03-30T09:56:57.439Z,7.53
2018-03-30T09:59:24.945Z,6.97
2018-03-30T10:01:52.499Z,8.40
2018-03-30T10:04:23.849Z,7.70
2018-03-30T10:06:51.428Z,7.60
2018-03-30T10:09:19.299Z,6.43
2018-03-30T10:11:46.969Z,6.10
2018-03-30T10:14:14.511Z,9.73
2018-03-30T10:16:42.087Z,6.43
2018-03-30T10:19:09.584Z,5.87
2018-03-30T10:21:37.212Z,4.67
2018-03-30T10:24:04.770Z,4.50
2018-03-30T10:26:32.444Z,5.50
2018-03-30T10:29:00.115Z,5.20
2018-03-30T10:31:27.676Z,6.23
2018-03-30T10:33:55.161Z,7.80
2018-03-30T10:36:22.661Z,6.50
2018-03-30T10:38:50.166Z,6.73
2018-03-30T10:41:17.710Z,4.90
2018-03-30T10:43:45.247Z,4.20
2018-03-30T10:46:12.875Z,5.13
2018-03-30T10:48:40.417Z,4.63
2018-03-30T10:51:08.284Z,5.60
2018-03-30T10:53:36.267Z,6.27
2018-03-30T10:56:03.796Z,5.67
2018-03-30T10:58:31.298Z,5.50
2018-03-30T11:00:58.850Z,7.50
2018-03-30T11:03:26.808Z,6.50
2018-03-30T11:05:54.707Z,5.63
2018-03-30T11:08:22.206Z,5.23
2018-03-30T11:10:49.671Z,5.73
2018-03-30T11:13:17.182Z,7.60
2018-03-30T11:15:44.733Z,4.90
2018-03-30T11:18:12.642Z,4.50
2018-03-30T11:20:40.139Z,5.10
2018-03-30T11:23:07.758Z,4.33
2018-03-30T11:25:35.338Z,5.93
2018-03-30T11:28:02.878Z,5.47
2018-03-30T11:30:30.427Z,6.80
2018-03-30T11:32:57.931Z,4.10
2018-03-30T11:35:25.421Z,4.10
2018-03-30T11:37:52.936Z,4.73
2018-03-30T11:40:20.441Z,4.03
2018-03-30T11:42:48.074Z,4.57
2018-03-30T11:45:15.616Z,4.50
2018-03-30T11:47:43.285Z,8.33
2018-03-30T11:50:11.183Z,5.43
2018-03-30T11:52:38.705Z,4.83
2018-03-30T11:55:06.189Z,5.97
2018-03-30T11:57:33.865Z,5.00
2018-03-30T12:00:01.380Z,4.43
2018-03-30T12:02:28.887Z,4.73
2018-03-30T12:04:56.367Z,5.23
2018-03-30T12:07:24.135Z,6.37
2018-03-30T12:09:51.661Z,6.07
2018-03-30T12:12:19.553Z,5.53
2018-03-30T12:14:47.064Z,6.57
2018-03-30T12:17:14.572Z,6.67
2018-03-30T12:19:42.464Z,8.67
2018-03-30T12:22:10.003Z,5.80
2018-03-30T12:24:37.483Z,7.50
2018-03-30T12:27:04.998Z,8.23
2018-03-30T12:29:32.585Z,6.37
2018-03-30T12:32:01.127Z,8.80
2018-03-30T12:34:29.024Z,7.37
2018-03-30T12:36:56.612Z,6.67
2018-03-30T12:39:24.586Z,5.93
2018-03-30T12:41:52.460Z,6.03
2018-03-30T12:44:20.374Z,4.73
2018-03-30T12:46:47.891Z,6.97
2018-03-30T12:49:15.860Z,5.67
2018-03-30T12:51:43.857Z,6.40
2018-03-30T12:54:11.362Z,5.90
2018-03-30T12:56:38.974Z,4.30
2018-03-30T12:59:06.869Z,5.23
2018-03-30T13:01:34.358Z,6.80
2018-03-30T13:04:01.862Z,5.27
2018-03-30T13:06:29.364Z,5.20
2018-03-30T13:08:57.069Z,6.00
2018-03-30T13:11:24.685Z,5.17
2018-03-30T13:13:52.181Z,8.27
2018-03-30T13:16:19.649Z,4.90
2018-03-30T13:18:47.280Z,6.80
2018-03-30T13:21:14.774Z,4.90
2018-03-30T13:23:42.297Z,4.93
2018-03-30T13:26:09.854Z,7.50
2018-03-30T13:28:37.360Z,6.00
2018-03-30T13:31:04.907Z,5.50
2018-03-30T13:33:32.397Z,4.80
2018-03-30T13:35:59.925Z,4.73
2018-03-30T13:38:28.366Z,4.80
2018-03-30T13:40:56.330Z,4.83
2018-03-30T13:43:23.810Z,6.60
2018-03-30T13:45:51.699Z,5.57
2018-03-30T13:48:19.204Z,4.00
2018-03-30T13:51:01.590Z,4.00
2018-03-30T13:53:30.832Z,4.40
2018-03-30T13:55:58.626Z,5.53
2018-03-30T13:58:27.848Z,4.50
2018-03-30T14:01:14.142Z,6.37
2018-03-30T14:17:31.357Z,4.17
2018-03-30T14:19:59.814Z,7.80
2018-03-30T14:22:30.274Z,6.50
2018-03-30T14:25:00.350Z,5.90
2018-03-30T14:27:30.667Z,4.40
2018-03-30T14:29:58.585Z,8.10
2018-03-30T14:32:27.681Z,5.77
2018-03-30T14:34:59.940Z,4.97
2018-03-30T14:37:41.034Z,3.50
2018-03-30T14:40:10.517Z,4.70
2018-03-30T14:42:38.374Z,3.23
2018-03-30T14:45:08.433Z,4.03
2018-03-30T14:47:37.671Z,3.83
2018-03-30T14:50:08.242Z,2.20
2018-03-30T14:52:37.805Z,2.43
2018-03-30T14:55:16.758Z,2.43
2018-03-30T14:57:47.282Z,2.20
2018-03-30T15:00:33.387Z,2.50
2018-03-30T15:03:04.712Z,3.17
2018-03-30T15:05:40.303Z,3.10
2018-03-30T15:08:19.760Z,2.47
2018-03-30T15:24:29.630Z,3.00
2018-03-30T15:27:02.771Z,2.60
2018-03-30T15:29:44.769Z,8.43
2018-03-30T15:32:25.077Z,2.70
2018-03-30T15:34:53.414Z,3.63
2018-03-30T15:37:22.322Z,3.50
2018-03-30T15:39:53.987Z,3.87
2018-03-30T15:42:27.447Z,3.10
2018-03-30T15:44:55.956Z,2.43
2018-03-30T15:47:23.924Z,1.73
2018-03-30T15:49:53.022Z,3.70
2018-03-30T15:52:22.259Z,4.40
2018-03-30T15:54:49.840Z,2.37
2018-03-30T15:57:17.402Z,3.97
2018-03-30T15:59:44.924Z,3.93
2018-03-30T16:02:12.836Z,2.93
2018-03-30T16:04:40.456Z,2.30
2018-03-30T16:07:08.516Z,2.63
2018-03-30T16:09:54.496Z,2.43
2018-03-30T16:12:32.909Z,5.17
2018-03-30T16:15:00.476Z,2.93
2018-03-30T16:17:28.094Z,2.77
2018-03-30T16:19:55.166Z,2.50
2018-03-30T16:22:22.209Z,2.70
2018-03-30T16:24:49.256Z,4.17
2018-03-30T16:27:16.295Z,3.43
2018-03-30T16:29:43.349Z,3.73
2018-03-30T16:32:10.382Z,2.57
2018-03-30T16:34:39.169Z,2.93
2018-03-30T16:37:06.653Z,4.87
2018-03-30T16:39:33.748Z,2.87
2018-03-30T16:42:00.775Z,3.83
2018-03-30T16:44:27.843Z,4.53
2018-03-30T16:46:54.941Z,3.67
2018-03-30T16:49:21.968Z,2.53
2018-03-30T16:51:49.000Z,3.13
2018-03-30T16:54:16.090Z,3.00
2018-03-30T16:56:43.110Z,3.07
2018-03-30T16:59:10.148Z,3.43
2018-03-30T17:01:37.263Z,3.80
2018-03-30T17:04:04.310Z,3.67
2018-03-30T17:06:31.841Z,4.77
2018-03-30T17:08:58.964Z,6.60
2018-03-30T17:11:26.017Z,6.20
2018-03-30T17:13:53.113Z,5.03
2018-03-30T17:16:20.111Z,5.27
2018-03-30T17:18:47.155Z,7.80
2018-03-30T17:21:14.703Z,8.70
2018-03-30T17:23:41.788Z,8.80
2018-03-30T17:26:08.943Z,9.47
2018-03-30T17:28:35.994Z,9.10
2018-03-30T17:31:03.085Z,7.80
2018-03-30T17:33:30.118Z,10.80
2018-03-30T17:35:57.158Z,8.47
2018-03-30T17:38:24.243Z,10.43
2018-03-30T17:40:51.329Z,10.70
2018-03-30T17:43:18.745Z,9.20
2018-03-30T17:45:45.793Z,8.80
2018-03-30T17:48:12.859Z,6.57
2018-03-30T17:50:39.865Z,8.40
2018-03-30T17:53:06.923Z,6.00
2018-03-30T17:55:34.394Z,7.53
2018-03-30T17:58:01.481Z,6.57
2018-03-30T18:00:28.585Z,6.40
2018-03-30T18:02:56.032Z,6.13
2018-03-30T18:05:23.116Z,6.70
2018-03-30T18:07:50.184Z,4.97
2018-03-30T18:10:17.332Z,5.50
2018-03-30T18:12:44.543Z,5.30
2018-03-30T18:15:11.526Z,6.60
2018-03-30T18:17:38.584Z,5.30
2018-03-30T18:20:05.615Z,5.93
2018-03-30T18:22:32.802Z,4.73
2018-03-30T18:25:00.046Z,5.83
2018-03-30T18:27:27.261Z,9.20
2018-03-30T18:29:55.076Z,5.80
2018-03-30T18:32:22.138Z,5.63
2018-03-30T18:34:49.318Z,8.20
2018-03-30T18:37:16.810Z,5.83
2018-03-30T18:39:44.445Z,9.57
2018-03-30T18:42:11.884Z,5.20
2018-03-30T18:44:39.033Z,6.60
2018-03-30T18:47:07.105Z,4.50
2018-03-30T18:49:34.367Z,5.60
2018-03-30T18:52:01.578Z,4.87
2018-03-30T18:54:30.309Z,5.83
2018-03-30T18:56:58.092Z,4.70
2018-03-30T18:59:25.643Z,3.57
2018-03-30T19:01:54.269Z,4.17
2018-03-30T19:04:22.306Z,5.73
2018-03-30T19:06:50.563Z,5.60
2018-03-30T19:09:18.866Z,4.63
2018-03-30T19:11:46.525Z,5.60
2018-03-30T19:14:14.636Z,4.67
2018-03-30T19:16:44.461Z,5.57
2018-03-30T19:19:11.795Z,4.20
2018-03-30T19:21:39.146Z,4.63
2018-03-30T19:24:06.299Z,3.93
2018-03-30T19:26:33.459Z,4.50
2018-03-30T19:29:00.900Z,4.63
2018-03-30T19:31:28.182Z,5.00
2018-03-30T19:33:55.432Z,4.40
2018-03-30T19:36:22.466Z,5.27
2018-03-30T19:38:49.806Z,5.20
2018-03-30T19:41:19.171Z,5.47
2018-03-30T19:43:49.039Z,3.93
2018-03-30T19:46:18.512Z,6.47
2018-03-30T19:48:47.681Z,7.30
2018-03-30T19:51:17.404Z,3.70
2018-03-30T19:53:47.654Z,4.37
2018-03-30T19:56:15.691Z,3.60
2018-03-30T19:58:45.885Z,7.80
2018-03-30T20:01:14.092Z,2.93
2018-03-30T20:03:42.415Z,3.00
2018-03-30T20:06:10.652Z,2.70
2018-03-30T20:08:38.951Z,2.00
2018-03-30T20:11:07.008Z,2.97
2018-03-30T20:13:35.216Z,2.00
2018-03-30T20:16:04.899Z,1.80
2018-03-30T20:18:33.714Z,1.80
2018-03-30T20:21:02.516Z,1.67
2018-03-30T20:23:32.014Z,1.90
2018-03-30T20:26:01.422Z,1.60
2018-03-30T20:28:30.413Z,1.73
2018-03-30T20:30:58.838Z,1.83
2018-03-30T20:33:28.893Z,2.03
2018-03-30T20:35:56.975Z,3.70
2018-03-30T20:38:25.014Z,2.20
2018-03-30T20:40:53.999Z,3.20
2018-03-30T20:43:22.243Z,1.70
2018-03-30T20:45:49.895Z,3.10
2018-03-30T20:48:17.542Z,3.70
2018-03-30T20:50:45.532Z,2.03
2018-03-30T20:53:13.016Z,1.80
2018-03-30T20:55:40.063Z,1.40
2018-03-30T20:58:07.101Z,2.23
2018-03-30T21:00:34.103Z,2.90
2018-03-30T21:03:01.125Z,1.90
2018-03-30T21:05:28.140Z,2.30
2018-03-30T21:07:55.177Z,2.30
2018-03-30T21:10:22.170Z,2.37
2018-03-30T21:12:49.206Z,2.03
2018-03-30T21:15:16.242Z,2.77
2018-03-30T21:17:43.298Z,2.20
2018-03-30T21:20:10.777Z,1.93
2018-03-30T21:22:37.815Z,3.40
2018-03-30T21:25:05.233Z,2.63
2018-03-30T21:27:32.256Z,2.37
2018-03-30T21:29:59.280Z,2.93
2018-03-30T21:32:26.730Z,2.00
2018-03-30T21:34:54.557Z,2.23
2018-03-30T21:37:21.582Z,9.73
2018-03-30T21:39:48.733Z,2.57
2018-03-30T21:42:16.669Z,2.50
2018-03-30T21:44:43.685Z,2.50
2018-03-30T21:47:10.726Z,5.77
2018-03-30T21:49:37.862Z,2.57
2018-03-30T21:52:05.254Z,6.63
2018-03-30T21:54:32.288Z,3.23
2018-03-30T21:56:59.818Z,2.80
2018-03-30T21:59:27.259Z,2.90
2018-03-30T22:01:54.359Z,4.43
2018-03-30T22:04:21.422Z,3.40
2018-03-30T22:06:48.456Z,3.17
2018-03-30T22:09:15.472Z,3.70
2018-03-30T22:11:42.575Z,4.00
2018-03-30T22:14:09.725Z,5.17
2018-03-30T22:16:36.764Z,4.07
2018-03-30T22:19:04.161Z,5.00
2018-03-30T22:21:31.723Z,4.07
2018-03-30T22:23:58.776Z,6.40
2018-03-30T22:26:25.837Z,3.93
2018-03-30T22:28:52.929Z,6.23
2018-03-30T22:31:20.030Z,4.80
2018-03-30T22:33:47.355Z,3.67
2018-03-30T22:36:14.387Z,4.57
2018-03-30T22:38:41.934Z,3.83
2018-03-30T22:41:09.001Z,5.10
2018-03-30T22:43:36.044Z,5.30
2018-03-30T22:46:03.070Z,5.57
2018-03-30T22:48:30.095Z,6.23
2018-03-30T22:50:57.221Z,4.50
2018-03-30T22:53:24.634Z,5.03
2018-03-30T22:55:51.709Z,4.90
2018-03-30T22:58:18.726Z,5.73
2018-03-30T23:00:45.751Z,4.97
2018-03-30T23:03:12.801Z,4.50
2018-03-30T23:05:40.182Z,5.40
2018-03-30T23:08:07.189Z,4.90
2018-03-30T23:10:34.227Z,5.37
2018-03-30T23:13:01.616Z,7.97
2018-03-30T23:15:29.238Z,6.50
2018-03-30T23:17:56.291Z,6.10
2018-03-30T23:20:23.818Z,6.23
2018-03-30T23:22:50.895Z,6.20
2018-03-30T23:25:17.964Z,6.17
2018-03-30T23:27:45.012Z,6.20
2018-03-30T23:30:12.046Z,5.50
2018-03-30T23:32:39.075Z,6.30
2018-03-30T23:35:06.136Z,7.50
2018-03-30T23:37:33.183Z,6.90
2018-03-30T23:40:00.220Z,8.63
2018-03-30T23:42:27.759Z,8.30
2018-03-30T23:44:54.930Z,7.27
2018-03-30T23:47:22.005Z,12.43
2018-03-30T23:49:49.404Z,6.67
2018-03-30T23:52:16.488Z,7.17
2018-03-30T23:54:43.499Z,8.60
2018-03-30T23:57:10.598Z,7.47
2018-03-30T23:59:38.014Z,8.23
